Time;durP1;ratioP1;P1;durP2;ratioP2;P2;SDS_P1;SDS_P2;PMS_P1;PMS_P2;Temp;Humidity;BMP_temperature;BMP_pressure;BME280_temperature;BME280_humidity;BME280_pressure;Samples;Min_cycle;Max_cycle;Signal;HPM_P1;HPM_P2
2022/07/22 00:02:16;;;;;;;8.55;3.80;;;15.60;99.90;;;;;;4840014;29;20129;-68
2022/07/22 00:04:41;;;;;;;7.30;3.35;;;15.60;99.90;;;;;;4839547;29;20198;-69
2022/07/22 00:07:07;;;;;;;10.75;3.30;;;15.60;99.90;;;;;;4837479;29;20140;-69
2022/07/22 00:09:33;;;;;;;7.72;3.60;;;15.60;99.90;;;;;;4840032;29;20065;-68
2022/07/22 00:11:59;;;;;;;8.65;3.50;;;15.60;99.90;;;;;;4835346;29;20065;-69
2022/07/22 00:14:25;;;;;;;10.38;3.47;;;15.60;99.90;;;;;;4839823;29;20125;-70
2022/07/22 00:16:50;;;;;;;10.57;3.83;;;15.60;99.90;;;;;;4833958;29;20132;-69
2022/07/22 00:19:16;;;;;;;9.27;3.60;;;15.60;99.90;;;;;;4841199;29;20054;-69
2022/07/22 00:21:42;;;;;;;6.13;3.28;;;15.60;99.90;;;;;;4836646;29;20054;-68
2022/07/22 00:24:07;;;;;;;8.43;3.40;;;15.60;99.90;;;;;;4839689;29;20066;-69
2022/07/22 00:26:33;;;;;;;13.02;4.13;;;15.60;99.90;;;;;;4842046;29;20054;-69
2022/07/22 00:28:59;;;;;;;8.98;3.40;;;15.60;99.90;;;;;;4845112;29;20058;-69
2022/07/22 00:31:24;;;;;;;10.25;3.78;;;15.70;99.90;;;;;;4842153;29;20054;-68
2022/07/22 00:33:50;;;;;;;7.43;3.47;;;15.70;99.90;;;;;;4840809;29;20098;-70
2022/07/22 00:36:16;;;;;;;11.82;3.47;;;15.60;99.90;;;;;;4818420;29;20053;-68
2022/07/22 00:38:41;;;;;;;8.48;3.67;;;15.60;99.90;;;;;;4841612;29;20050;-69
2022/07/22 00:41:07;;;;;;;9.45;3.28;;;15.70;99.90;;;;;;4837895;29;20066;-68
2022/07/22 00:43:53;;;;;;;7.95;3.53;;;15.70;99.90;;;;;;4842285;29;20133;-70
2022/07/22 00:46:20;;;;;;;7.55;3.15;;;15.70;99.90;;;;;;4841250;29;20050;-68
2022/07/22 00:48:46;;;;;;;6.97;3.03;;;15.70;99.90;;;;;;4835920;29;20495;-69
2022/07/22 00:51:11;;;;;;;8.82;3.40;;;15.70;99.90;;;;;;4829568;29;20062;-70
2022/07/22 00:53:37;;;;;;;13.68;3.30;;;15.70;99.90;;;;;;4840367;29;20064;-69
2022/07/22 00:56:03;;;;;;;10.18;3.53;;;15.60;99.90;;;;;;4841485;29;20062;-69
2022/07/22 00:58:29;;;;;;;10.10;3.50;;;15.60;99.90;;;;;;4843540;29;20054;-68
2022/07/22 01:00:55;;;;;;;9.80;3.33;;;15.70;99.90;;;;;;4843158;29;20202;-68
2022/07/22 01:03:20;;;;;;;11.90;3.10;;;15.60;99.90;;;;;;4842581;29;20526;-70
2022/07/22 01:05:46;;;;;;;8.27;3.08;;;15.60;99.90;;;;;;4837809;29;20145;-68
2022/07/22 01:08:12;;;;;;;7.72;3.20;;;15.60;99.90;;;;;;4826611;29;20452;-68
2022/07/22 01:10:37;;;;;;;7.22;3.00;;;15.70;99.90;;;;;;4840060;29;20097;-69
2022/07/22 01:13:03;;;;;;;7.22;3.13;;;15.60;99.90;;;;;;4842393;29;20057;-69
2022/07/22 01:15:28;;;;;;;8.07;3.28;;;15.60;99.90;;;;;;4843583;29;20089;-69
2022/07/22 01:17:54;;;;;;;13.15;3.63;;;15.60;99.90;;;;;;4842940;29;20054;-69
2022/07/22 01:20:20;;;;;;;11.38;3.88;;;15.60;99.90;;;;;;4844473;29;20066;-69
2022/07/22 01:22:45;;;;;;;6.15;2.75;;;15.60;99.90;;;;;;4843871;29;20038;-69
2022/07/22 01:25:11;;;;;;;10.98;3.55;;;15.60;99.90;;;;;;4839149;29;20214;-70
2022/07/22 01:27:37;;;;;;;11.30;3.60;;;15.60;99.90;;;;;;4842784;29;20053;-70
2022/07/22 01:30:05;;;;;;;5.82;3.20;;;15.60;99.90;;;;;;4843187;29;20412;-69
2022/07/22 01:32:30;;;;;;;10.80;3.28;;;15.60;99.90;;;;;;4842966;29;20453;-70
2022/07/22 01:34:56;;;;;;;5.25;2.88;;;15.70;99.90;;;;;;4841869;29;20062;-69
2022/07/22 01:37:22;;;;;;;7.22;2.83;;;15.70;99.90;;;;;;4827481;29;20118;-68
2022/07/22 01:39:49;;;;;;;6.78;3.20;;;15.70;99.90;;;;;;4841728;29;20054;-69
2022/07/22 01:42:14;;;;;;;6.82;3.22;;;15.70;99.90;;;;;;4844054;29;20060;-69
2022/07/22 01:44:40;;;;;;;8.82;2.63;;;15.60;99.90;;;;;;4841967;29;20125;-69
2022/07/22 01:47:06;;;;;;;7.78;2.90;;;15.70;99.90;;;;;;4843726;29;20053;-68
2022/07/22 01:49:33;;;;;;;5.95;2.80;;;15.60;99.90;;;;;;4843042;29;20046;-68
2022/07/22 01:51:58;;;;;;;10.45;3.05;;;15.70;99.90;;;;;;4843905;29;20050;-70
2022/07/22 01:54:24;;;;;;;6.85;2.90;;;15.60;99.90;;;;;;4838777;29;20045;-69
2022/07/22 01:56:50;;;;;;;4.43;2.38;;;15.60;99.90;;;;;;4836606;29;20082;-69
2022/07/22 01:59:15;;;;;;;7.20;2.75;;;15.60;99.90;;;;;;4843726;29;20049;-69
2022/07/22 02:01:41;;;;;;;7.13;2.83;;;15.70;99.90;;;;;;4840469;29;20058;-68
2022/07/22 02:04:06;;;;;;;7.72;2.97;;;15.60;99.90;;;;;;4842709;29;20214;-69
2022/07/22 02:06:32;;;;;;;5.47;2.85;;;15.60;99.90;;;;;;4842917;29;20065;-68
2022/07/22 02:08:58;;;;;;;7.25;3.13;;;15.60;99.90;;;;;;4822497;29;20457;-68
2022/07/22 02:11:24;;;;;;;8.20;3.00;;;15.60;99.90;;;;;;4824709;29;20123;-68
2022/07/22 02:13:49;;;;;;;5.38;2.45;;;15.60;99.90;;;;;;4842713;29;20081;-68
2022/07/22 02:16:15;;;;;;;7.05;2.38;;;15.60;99.90;;;;;;4843820;29;20511;-68
2022/07/22 02:18:41;;;;;;;8.75;2.83;;;15.60;99.90;;;;;;4834315;29;20132;-68
2022/07/22 02:21:07;;;;;;;8.80;2.95;;;15.50;99.90;;;;;;4842521;29;20551;-69
2022/07/22 02:23:32;;;;;;;5.70;2.80;;;15.50;99.90;;;;;;4841093;29;20058;-68
2022/07/22 02:25:58;;;;;;;8.23;2.70;;;15.50;99.90;;;;;;4843629;29;20079;-68
2022/07/22 02:28:23;;;;;;;7.43;2.20;;;15.50;99.90;;;;;;4841633;29;20050;-68
2022/07/22 02:30:49;;;;;;;8.50;2.80;;;15.50;99.90;;;;;;4843562;29;20069;-67
2022/07/22 02:33:14;;;;;;;6.43;2.67;;;15.50;99.90;;;;;;4840469;29;20466;-69
2022/07/22 02:35:40;;;;;;;5.90;2.40;;;15.50;99.90;;;;;;4842202;29;20050;-69
2022/07/22 02:38:06;;;;;;;4.57;2.40;;;15.50;99.90;;;;;;4836588;29;20046;-68
2022/07/22 02:40:32;;;;;;;7.65;2.50;;;15.60;99.90;;;;;;4841493;29;20058;-69
2022/07/22 02:42:58;;;;;;;9.02;2.65;;;15.50;99.90;;;;;;4836427;29;20391;-69
2022/07/22 02:45:24;;;;;;;9.30;2.50;;;15.50;99.90;;;;;;4841955;29;20077;-68
2022/07/22 02:47:55;;;;;;;4.28;2.08;;;15.50;99.90;;;;;;4842357;29;20053;-68
2022/07/22 02:50:22;;;;;;;5.43;2.40;;;15.50;99.90;;;;;;4837738;29;20046;-69
2022/07/22 02:52:48;;;;;;;4.22;2.42;;;15.50;99.90;;;;;;4837283;29;20062;-69
2022/07/22 02:55:14;;;;;;;5.25;2.30;;;15.50;99.90;;;;;;4825912;29;20076;-68
2022/07/22 02:57:40;;;;;;;10.18;2.78;;;15.50;99.90;;;;;;4842379;29;20060;-68
2022/07/22 03:00:09;;;;;;;7.57;2.28;;;15.50;99.90;;;;;;4839540;29;20440;-68
2022/07/22 03:02:35;;;;;;;5.38;2.38;;;15.50;99.90;;;;;;4839785;29;20057;-68
2022/07/22 03:05:01;;;;;;;5.35;2.10;;;15.50;99.90;;;;;;4840959;29;20049;-68
2022/07/22 03:07:26;;;;;;;7.85;2.50;;;15.50;99.90;;;;;;4837388;29;20057;-70
2022/07/22 03:09:52;;;;;;;11.50;2.70;;;15.50;99.90;;;;;;4842560;29;20416;-68
2022/07/22 03:12:17;;;;;;;6.10;2.30;;;15.50;99.90;;;;;;4841271;29;20065;-68
2022/07/22 03:14:43;;;;;;;4.72;2.05;;;15.50;99.90;;;;;;4840215;29;20074;-67
2022/07/22 03:17:08;;;;;;;6.82;2.17;;;15.50;99.90;;;;;;4841383;29;20062;-68
2022/07/22 03:19:34;;;;;;;7.28;2.30;;;15.50;99.90;;;;;;4839183;29;20054;-69
2022/07/22 03:22:00;;;;;;;7.35;2.22;;;15.50;99.90;;;;;;4836661;29;20412;-68
2022/07/22 03:24:25;;;;;;;7.60;2.30;;;15.50;99.90;;;;;;4838881;29;20058;-68
2022/07/22 03:26:51;;;;;;;5.30;2.13;;;15.50;99.90;;;;;;4841348;29;20504;-68
2022/07/22 03:29:16;;;;;;;7.38;2.08;;;15.50;99.90;;;;;;4838938;29;20056;-68
2022/07/22 03:31:42;;;;;;;3.58;2.13;;;15.40;99.90;;;;;;4833863;29;20456;-68
2022/07/22 03:34:07;;;;;;;5.82;2.30;;;15.40;99.90;;;;;;4839483;29;20057;-67
2022/07/22 03:36:33;;;;;;;6.28;2.22;;;15.40;99.90;;;;;;4841222;29;20053;-68
2022/07/22 03:38:59;;;;;;;4.72;1.95;;;15.50;99.90;;;;;;4842332;29;20054;-67
2022/07/22 03:41:24;;;;;;;4.25;2.00;;;15.50;99.90;;;;;;4840813;29;20089;-69
2022/07/22 03:43:50;;;;;;;5.35;2.00;;;15.50;99.90;;;;;;4838638;29;20483;-68
2022/07/22 03:46:16;;;;;;;7.75;1.92;;;15.50;99.90;;;;;;4829933;29;20042;-68
2022/07/22 03:48:41;;;;;;;4.10;2.15;;;15.50;99.90;;;;;;4840630;29;20475;-68
2022/07/22 03:51:07;;;;;;;4.60;2.28;;;15.40;99.90;;;;;;4837359;29;20140;-67
2022/07/22 03:53:33;;;;;;;4.22;2.10;;;15.50;99.90;;;;;;4837736;29;20058;-68
2022/07/22 03:55:59;;;;;;;3.97;2.13;;;15.50;99.90;;;;;;4840192;29;20053;-70
2022/07/22 03:58:26;;;;;;;4.47;2.08;;;15.40;99.90;;;;;;4841708;29;20468;-67
2022/07/22 04:00:52;;;;;;;5.18;2.08;;;15.40;99.90;;;;;;4841549;29;20061;-67
2022/07/22 04:03:18;;;;;;;5.22;2.20;;;15.50;99.90;;;;;;4844925;29;20078;-68
2022/07/22 04:05:44;;;;;;;6.18;2.22;;;15.50;99.90;;;;;;4842960;29;20138;-67
2022/07/22 04:08:10;;;;;;;5.93;2.72;;;15.40;99.90;;;;;;4828949;29;20077;-68
2022/07/22 04:10:35;;;;;;;5.30;2.25;;;15.40;99.90;;;;;;4846201;29;20058;-69
2022/07/22 04:13:01;;;;;;;6.45;2.40;;;15.50;99.90;;;;;;4838869;29;20042;-69
2022/07/22 04:15:27;;;;;;;6.88;2.47;;;15.40;99.90;;;;;;4842822;29;20154;-68
2022/07/22 04:17:52;;;;;;;6.22;2.20;;;15.40;99.90;;;;;;4838588;29;20106;-67
2022/07/22 04:20:18;;;;;;;7.32;2.15;;;15.40;99.90;;;;;;4844069;29;20151;-68
2022/07/22 04:22:44;;;;;;;5.22;1.95;;;15.50;99.90;;;;;;4844796;29;20054;-67
2022/07/22 04:25:09;;;;;;;4.72;1.98;;;15.50;99.90;;;;;;4842505;29;20066;-68
2022/07/22 04:27:36;;;;;;;5.22;2.10;;;15.50;99.90;;;;;;4836921;29;20064;-68
2022/07/22 04:30:01;;;;;;;4.45;2.05;;;15.50;99.90;;;;;;4845257;29;20074;-68
2022/07/22 04:32:27;;;;;;;5.60;2.00;;;15.50;99.90;;;;;;4843517;29;20061;-68
2022/07/22 04:34:52;;;;;;;6.90;2.33;;;15.50;99.90;;;;;;4845066;29;20058;-68
2022/07/22 04:37:18;;;;;;;4.68;2.28;;;15.60;99.90;;;;;;4843671;29;20117;-68
2022/07/22 04:39:44;;;;;;;9.30;2.30;;;15.60;99.90;;;;;;4837410;29;20489;-67
2022/07/22 04:42:10;;;;;;;4.72;2.00;;;15.60;99.90;;;;;;4844908;29;20057;-68
2022/07/22 04:44:35;;;;;;;2.85;1.88;;;15.60;99.90;;;;;;4845371;29;20069;-67
2022/07/22 04:47:01;;;;;;;5.60;1.95;;;15.60;99.90;;;;;;4834484;29;20419;-68
2022/07/22 04:49:27;;;;;;;6.35;2.33;;;15.60;99.90;;;;;;4844331;29;20114;-67
2022/07/22 04:51:52;;;;;;;4.72;1.88;;;15.60;99.90;;;;;;4835858;29;20066;-68
2022/07/22 04:54:18;;;;;;;4.75;2.22;;;15.60;99.90;;;;;;4838157;29;20524;-68
2022/07/22 04:56:44;;;;;;;5.95;1.80;;;15.60;99.90;;;;;;4833562;29;20110;-67
2022/07/22 04:59:09;;;;;;;5.75;1.67;;;15.60;99.90;;;;;;4843888;29;20054;-69
2022/07/22 05:01:35;;;;;;;6.63;1.80;;;15.70;99.90;;;;;;4838642;29;20054;-67
2022/07/22 05:04:01;;;;;;;6.05;2.20;;;15.70;99.90;;;;;;4842676;29;20463;-68
2022/07/22 05:06:26;;;;;;;4.55;2.03;;;15.60;99.90;;;;;;4843939;29;20061;-69
2022/07/22 05:08:52;;;;;;;4.00;2.30;;;15.80;99.90;;;;;;4843399;29;20062;-69
2022/07/22 05:11:18;;;;;;;6.88;2.53;;;15.70;99.90;;;;;;4843749;29;20065;-69
2022/07/22 05:13:43;;;;;;;4.50;1.88;;;15.50;99.90;;;;;;4842399;29;20136;-68
2022/07/22 05:16:09;;;;;;;4.03;1.95;;;15.80;99.90;;;;;;4833572;29;20129;-67
2022/07/22 05:18:35;;;;;;;5.75;2.40;;;15.80;99.90;;;;;;4840335;29;20065;-67
2022/07/22 05:21:01;;;;;;;5.03;2.13;;;15.90;99.90;;;;;;4840449;29;20050;-68
2022/07/22 05:23:26;;;;;;;7.15;1.90;;;15.90;99.90;;;;;;4830795;29;20050;-67
2022/07/22 05:25:52;;;;;;;5.20;2.08;;;16.00;99.90;;;;;;4844428;29;20118;-68
2022/07/22 05:28:19;;;;;;;5.75;2.55;;;16.00;99.90;;;;;;4835693;29;20086;-70
2022/07/22 05:30:44;;;;;;;5.40;2.17;;;16.00;99.90;;;;;;4843842;29;20105;-68
2022/07/22 05:33:10;;;;;;;6.40;2.20;;;16.10;99.90;;;;;;4834363;29;20455;-68
2022/07/22 05:35:36;;;;;;;7.95;2.60;;;16.10;99.90;;;;;;4818722;29;20045;-67
2022/07/22 05:38:03;;;;;;;5.82;2.38;;;16.00;99.90;;;;;;4837431;29;20109;-67
2022/07/22 05:40:29;;;;;;;6.55;2.25;;;16.20;99.90;;;;;;4838514;29;20435;-68
2022/07/22 05:42:54;;;;;;;6.40;1.67;;;16.20;99.90;;;;;;4837627;29;20050;-69
2022/07/22 05:45:20;;;;;;;5.00;2.38;;;16.20;99.90;;;;;;4844212;29;20050;-70
2022/07/22 05:47:46;;;;;;;5.63;2.08;;;16.20;99.90;;;;;;4834356;29;20165;-68
2022/07/22 05:50:12;;;;;;;4.38;1.90;;;16.20;99.90;;;;;;4840665;29;20049;-67
2022/07/22 05:52:38;;;;;;;6.93;2.15;;;16.20;99.90;;;;;;4840135;29;20496;-68
2022/07/22 05:55:05;;;;;;;4.05;1.85;;;16.20;99.90;;;;;;4840714;29;20129;-68
2022/07/22 05:57:31;;;;;;;7.70;2.40;;;16.30;99.90;;;;;;4841544;29;20058;-68
2022/07/22 05:59:56;;;;;;;5.82;1.98;;;16.20;99.90;;;;;;4839691;29;20101;-68
2022/07/22 06:02:22;;;;;;;5.50;2.13;;;16.30;99.90;;;;;;4842715;29;20050;-68
2022/07/22 06:04:48;;;;;;;5.80;1.90;;;16.30;99.90;;;;;;4843401;29;20057;-68
2022/07/22 06:07:14;;;;;;;5.55;2.25;;;16.40;99.90;;;;;;4842368;29;20054;-67
2022/07/22 06:09:39;;;;;;;4.18;1.88;;;16.50;99.90;;;;;;4841041;29;20061;-67
2022/07/22 06:12:05;;;;;;;4.45;2.15;;;16.50;99.90;;;;;;4843072;29;20053;-67
2022/07/22 06:14:31;;;;;;;10.05;2.22;;;16.50;99.90;;;;;;4842325;29;20082;-68
2022/07/22 06:16:57;;;;;;;6.03;2.10;;;16.50;99.90;;;;;;4843225;29;20062;-68
2022/07/22 06:19:24;;;;;;;4.60;1.90;;;16.50;99.90;;;;;;4842795;29;20058;-68
2022/07/22 06:21:50;;;;;;;4.32;1.90;;;16.60;99.90;;;;;;4843498;29;20091;-68
2022/07/22 06:24:15;;;;;;;5.40;2.25;;;16.60;99.90;;;;;;4838789;29;20062;-69
2022/07/22 06:26:41;;;;;;;4.03;1.95;;;16.70;99.90;;;;;;4839872;29;20058;-69
2022/07/22 06:29:07;;;;;;;5.93;1.85;;;16.70;99.90;;;;;;4832706;29;20137;-69
2022/07/22 06:31:32;;;;;;;7.65;2.00;;;16.70;99.90;;;;;;4843317;29;20081;-68
2022/07/22 06:33:58;;;;;;;6.38;2.28;;;16.70;99.90;;;;;;4842916;29;20054;-69
2022/07/22 06:36:23;;;;;;;7.85;1.98;;;16.80;99.90;;;;;;4841258;29;20130;-67
2022/07/22 06:38:49;;;;;;;3.03;1.70;;;16.80;99.90;;;;;;4826782;29;20164;-67
2022/07/22 06:41:19;;;;;;;2.22;1.88;;;16.80;99.90;;;;;;4842462;29;20073;-67
2022/07/22 06:43:45;;;;;;;3.67;1.83;;;16.80;99.90;;;;;;4840639;29;20056;-68
2022/07/22 06:46:10;;;;;;;2.85;1.63;;;16.90;99.90;;;;;;4843145;29;20128;-69
2022/07/22 06:48:36;;;;;;;2.30;1.20;;;16.90;99.90;;;;;;4856295;29;20065;-68
2022/07/22 06:51:01;;;;;;;5.25;1.98;;;16.90;99.90;;;;;;4842784;29;20515;-68
2022/07/22 06:53:27;;;;;;;1.98;1.33;;;16.90;99.90;;;;;;4842907;29;20458;-66
2022/07/22 06:55:53;;;;;;;4.88;1.83;;;17.00;99.90;;;;;;4842921;29;20050;-68
2022/07/22 06:58:18;;;;;;;2.53;1.73;;;17.00;99.90;;;;;;4842408;29;20101;-67
2022/07/22 07:00:44;;;;;;;4.55;1.45;;;16.90;99.90;;;;;;4842108;29;20048;-68
2022/07/22 07:03:10;;;;;;;6.47;2.03;;;17.00;99.90;;;;;;4840821;29;20062;-68
2022/07/22 07:05:35;;;;;;;7.95;2.13;;;17.00;99.90;;;;;;4843015;29;20089;-69
2022/07/22 07:08:01;;;;;;;5.80;1.75;;;17.00;99.90;;;;;;4842637;29;20057;-67
2022/07/22 07:10:27;;;;;;;5.43;1.77;;;17.00;99.90;;;;;;4857149;29;20074;-69
2022/07/22 07:12:57;;;;;;;5.18;1.70;;;17.10;99.90;;;;;;4841443;29;20498;-67
2022/07/22 07:15:26;;;;;;;5.97;1.98;;;17.10;99.90;;;;;;4856931;29;20062;-67
2022/07/22 07:17:53;;;;;;;3.38;1.50;;;17.10;99.90;;;;;;4840548;29;20060;-67
2022/07/22 07:20:19;;;;;;;3.28;1.50;;;17.20;99.90;;;;;;4841347;29;20110;-67
2022/07/22 07:22:45;;;;;;;4.32;1.42;;;17.30;99.90;;;;;;4842466;29;20050;-68
2022/07/22 07:25:11;;;;;;;4.10;1.75;;;17.40;99.90;;;;;;4842361;29;20061;-70
2022/07/22 07:27:36;;;;;;;5.90;1.75;;;17.40;99.90;;;;;;4841331;29;20085;-69
2022/07/22 07:30:04;;;;;;;5.80;1.70;;;17.60;99.90;;;;;;4842606;29;20066;-69
2022/07/22 07:32:30;;;;;;;3.88;1.70;;;17.60;99.90;;;;;;4841857;29;20157;-68
2022/07/22 07:34:55;;;;;;;4.53;1.88;;;17.70;99.90;;;;;;4841848;29;20220;-66
2022/07/22 07:37:21;;;;;;;3.75;1.40;;;17.80;99.90;;;;;;4840390;29;20472;-68
2022/07/22 07:39:47;;;;;;;4.07;1.40;;;18.00;99.90;;;;;;4842103;29;20053;-68
2022/07/22 07:42:12;;;;;;;2.25;1.30;;;18.00;99.90;;;;;;4841880;29;20145;-68
2022/07/22 07:44:38;;;;;;;25.42;3.25;;;18.10;99.90;;;;;;4839825;29;20053;-70
2022/07/22 07:47:03;;;;;;;3.83;1.50;;;18.20;99.90;;;;;;4839030;29;20050;-67
2022/07/22 07:49:29;;;;;;;2.67;1.25;;;18.30;99.90;;;;;;4833591;29;20060;-69
2022/07/22 07:51:55;;;;;;;5.47;1.33;;;18.30;99.90;;;;;;4841608;29;20054;-68
2022/07/22 07:54:21;;;;;;;3.42;1.48;;;18.30;99.90;;;;;;4841808;29;20403;-67
2022/07/22 07:56:46;;;;;;;2.33;1.15;;;18.30;99.90;;;;;;4838355;29;20090;-67
2022/07/22 07:59:12;;;;;;;3.72;1.33;;;18.40;99.90;;;;;;4835196;29;20421;-68
2022/07/22 08:01:38;;;;;;;3.53;1.05;;;18.40;99.90;;;;;;4841626;29;20065;-67
2022/07/22 08:04:04;;;;;;;4.03;1.50;;;18.40;99.90;;;;;;4838229;29;20058;-67
2022/07/22 08:06:30;;;;;;;2.35;1.10;;;18.40;99.90;;;;;;4823512;29;20085;-68
2022/07/22 08:08:56;;;;;;;3.53;1.65;;;18.30;99.90;;;;;;4836842;29;20097;-67
2022/07/22 08:11:22;;;;;;;3.53;1.33;;;18.20;99.90;;;;;;4840466;29;20061;-68
2022/07/22 08:13:48;;;;;;;2.67;1.30;;;18.30;99.90;;;;;;4841870;29;20068;-67
2022/07/22 08:16:14;;;;;;;5.95;1.50;;;18.10;99.90;;;;;;4841897;29;20058;-67
2022/07/22 08:18:40;;;;;;;5.72;1.48;;;18.10;99.90;;;;;;4841613;29;20133;-68
2022/07/22 08:21:06;;;;;;;3.63;1.30;;;18.10;99.90;;;;;;4837160;29;20120;-69
2022/07/22 08:23:32;;;;;;;5.13;1.27;;;18.00;99.90;;;;;;4841901;29;20182;-67
2022/07/22 08:25:58;;;;;;;2.38;1.10;;;18.00;99.90;;;;;;4839544;29;20496;-65
2022/07/22 08:28:23;;;;;;;2.05;1.05;;;18.00;99.90;;;;;;4836700;29;20053;-66
2022/07/22 08:30:49;;;;;;;2.63;1.20;;;18.00;99.90;;;;;;4841824;29;20125;-65
2022/07/22 08:33:14;;;;;;;4.75;1.80;;;18.00;99.90;;;;;;4839720;29;20086;-67
2022/07/22 08:35:40;;;;;;;2.72;1.45;;;18.00;99.90;;;;;;4841010;29;20147;-67
2022/07/22 08:38:06;;;;;;;3.53;1.30;;;17.90;99.90;;;;;;4840566;29;20110;-67
2022/07/22 08:40:31;;;;;;;3.67;1.20;;;17.90;99.90;;;;;;4840899;29;20129;-68
2022/07/22 08:43:00;;;;;;;2.90;1.45;;;18.00;99.90;;;;;;4819640;29;20234;-68
2022/07/22 08:45:27;;;;;;;4.00;1.60;;;18.10;99.90;;;;;;4838425;29;20380;-67
2022/07/22 08:47:54;;;;;;;3.00;1.27;;;18.10;99.90;;;;;;4835597;29;20429;-68
2022/07/22 08:50:20;;;;;;;2.55;1.13;;;18.10;99.90;;;;;;4844806;29;20064;-65
2022/07/22 08:52:45;;;;;;;4.75;1.63;;;18.10;99.90;;;;;;4837295;29;20054;-66
2022/07/22 08:55:11;;;;;;;1.70;1.23;;;18.10;99.90;;;;;;4845001;29;20062;-66
2022/07/22 08:57:37;;;;;;;3.92;1.67;;;18.10;99.90;;;;;;4842480;29;20520;-66
2022/07/22 09:00:10;;;;;;;3.85;1.60;;;18.10;99.90;;;;;;4843143;29;20074;-66
2022/07/22 09:02:38;;;;;;;3.97;1.48;;;18.00;99.90;;;;;;4827540;29;20054;-67
2022/07/22 09:05:06;;;;;;;4.63;1.50;;;18.00;99.90;;;;;;4844934;29;20056;-65
2022/07/22 09:07:38;;;;;;;4.25;1.77;;;18.10;99.90;;;;;;4843184;29;20057;-66
2022/07/22 09:10:17;;;;;;;2.13;1.30;;;18.20;99.90;;;;;;4843599;29;20415;-66
2022/07/22 09:12:59;;;;;;;3.28;1.42;;;18.30;99.90;;;;;;4844961;29;20397;-66
2022/07/22 09:15:30;;;;;;;5.97;1.30;;;18.40;99.90;;;;;;4844198;29;20069;-66
2022/07/22 09:17:56;;;;;;;5.57;1.50;;;18.50;99.90;;;;;;4843711;29;20057;-65
2022/07/22 09:20:23;;;;;;;4.18;1.42;;;18.60;99.90;;;;;;4844543;29;20065;-67
2022/07/22 09:22:49;;;;;;;4.65;1.67;;;18.60;99.90;;;;;;4848672;29;20061;-66
2022/07/22 09:25:25;;;;;;;2.92;1.60;;;18.70;99.90;;;;;;4862660;29;20096;-67
2022/07/22 09:27:55;;;;;;;5.30;1.65;;;18.80;99.90;;;;;;4803610;29;20051;-67
2022/07/22 09:30:23;;;;;;;2.13;1.23;;;18.80;99.90;;;;;;4809976;29;20054;-66
2022/07/22 09:32:49;;;;;;;1.23;0.90;;;18.90;99.90;;;;;;4839364;29;20133;-66
2022/07/22 09:35:16;;;;;;;2.55;1.08;;;18.90;99.90;;;;;;4839524;29;20128;-66
2022/07/22 09:37:54;;;;;;;2.90;1.30;;;19.00;99.90;;;;;;4809195;29;20059;-67
2022/07/22 09:40:29;;;;;;;3.78;1.30;;;19.10;99.90;;;;;;4827119;29;20500;-66
2022/07/22 09:42:55;;;;;;;4.20;1.27;;;19.20;99.90;;;;;;4843805;29;20058;-66
2022/07/22 09:45:23;;;;;;;4.03;1.13;;;19.40;99.90;;;;;;4843124;29;20080;-66
2022/07/22 09:47:49;;;;;;;2.33;0.80;;;19.40;99.90;;;;;;4843556;29;20483;-67
2022/07/22 09:50:22;;;;;;;2.70;1.10;;;19.50;99.90;;;;;;4843806;29;20069;-66
2022/07/22 09:52:50;;;;;;;2.58;1.10;;;19.50;99.90;;;;;;4843766;29;20057;-66
2022/07/22 09:55:17;;;;;;;2.78;1.20;;;19.50;99.90;;;;;;4843916;29;20057;-67
2022/07/22 09:57:44;;;;;;;3.63;1.17;;;19.50;99.90;;;;;;4842175;29;20066;-66
2022/07/22 10:00:11;;;;;;;4.72;1.17;;;19.50;99.90;;;;;;4843968;29;20128;-66
2022/07/22 10:02:45;;;;;;;2.63;1.05;;;19.40;99.90;;;;;;4841336;29;20050;-67
2022/07/22 10:05:11;;;;;;;1.52;0.93;;;19.40;99.90;;;;;;4835475;29;20088;-67
2022/07/22 10:07:38;;;;;;;2.05;1.23;;;19.30;99.90;;;;;;4856803;29;20050;-66
2022/07/22 10:10:05;;;;;;;1.00;0.75;;;19.20;99.90;;;;;;4843410;29;20078;-66
2022/07/22 10:12:31;;;;;;;2.05;0.90;;;19.10;99.90;;;;;;4840099;29;20054;-66
2022/07/22 10:14:57;;;;;;;2.30;0.98;;;19.10;99.90;;;;;;4837261;29;20089;-67
2022/07/22 10:17:23;;;;;;;2.65;1.08;;;19.10;99.90;;;;;;4839818;29;20562;-67
2022/07/22 10:19:49;;;;;;;1.30;0.75;;;18.90;99.90;;;;;;4843819;29;20062;-68
2022/07/22 10:22:39;;;;;;;3.10;1.10;;;18.90;99.90;;;;;;4837573;29;20050;-67
2022/07/22 10:25:07;;;;;;;2.72;1.13;;;19.00;99.90;;;;;;4821096;29;20353;-68
2022/07/22 10:27:47;;;;;;;2.03;1.23;;;19.00;99.90;;;;;;4835456;29;20472;-66
2022/07/22 10:30:15;;;;;;;4.88;1.20;;;18.90;99.90;;;;;;4836326;29;20113;-67
2022/07/22 10:32:41;;;;;;;2.58;1.10;;;18.90;99.90;;;;;;4831525;29;20076;-66
2022/07/22 10:35:07;;;;;;;1.73;0.85;;;18.80;99.90;;;;;;4839965;29;20058;-67
2022/07/22 10:37:43;;;;;;;2.05;1.10;;;18.80;99.90;;;;;;4838195;29;20066;-66
2022/07/22 10:40:11;;;;;;;2.78;1.30;;;18.80;99.90;;;;;;4838298;29;20133;-66
2022/07/22 10:43:03;;;;;;;2.13;0.88;;;18.80;99.90;;;;;;4842340;29;20459;-67
2022/07/22 10:46:06;;;;;;;4.03;1.10;;;18.80;99.90;;;;;;4843117;29;20508;-65
2022/07/22 10:48:37;;;;;;;6.18;1.20;;;18.90;99.90;;;;;;4803272;29;20057;-67
2022/07/22 10:51:09;;;;;;;3.27;1.07;;;18.90;99.90;;;;;;4839578;29;20176;-67
2022/07/22 10:54:01;;;;;;;3.35;1.17;;;18.80;99.90;;;;;;4829140;29;20311;-66
2022/07/22 10:56:34;;;;;;;2.88;0.85;;;18.80;99.90;;;;;;4842601;29;20476;-66
2022/07/22 10:59:07;;;;;;;1.60;0.98;;;18.80;99.90;;;;;;4843098;29;20149;-67
2022/07/22 11:01:33;;;;;;;3.45;1.00;;;18.90;99.90;;;;;;4842655;29;20060;-66
2022/07/22 11:04:29;;;;;;;2.15;1.05;;;18.90;99.90;;;;;;4842171;29;20042;-66
2022/07/22 11:06:56;;;;;;;1.73;1.02;;;18.90;99.90;;;;;;4831064;29;20106;-66
2022/07/22 11:09:30;;;;;;;2.53;1.25;;;18.90;99.90;;;;;;4839572;29;20061;-66
2022/07/22 11:11:56;;;;;;;4.63;1.00;;;19.00;99.90;;;;;;4840731;29;20057;-65
2022/07/22 11:14:32;;;;;;;10.88;1.52;;;19.00;99.90;;;;;;4842426;29;20050;-66
2022/07/22 11:17:05;;;;;;;4.00;0.93;;;19.20;99.90;;;;;;4839702;29;20072;-66
2022/07/22 11:19:32;;;;;;;5.32;1.13;;;19.30;99.90;;;;;;4839760;29;20061;-66
2022/07/22 11:22:04;;;;;;;2.15;1.02;;;19.40;99.90;;;;;;4842459;29;20141;-66
2022/07/22 11:24:30;;;;;;;4.22;0.85;;;19.40;99.90;;;;;;4839322;29;20050;-66
2022/07/22 11:26:58;;;;;;;3.50;0.88;;;19.40;99.90;;;;;;4849931;29;20061;-66
2022/07/22 11:29:39;;;;;;;2.60;0.70;;;19.50;99.90;;;;;;4841743;29;20042;-66
2022/07/22 11:32:08;;;;;;;2.85;1.00;;;19.50;99.90;;;;;;4839853;29;20053;-66
2022/07/22 11:34:36;;;;;;;3.92;1.15;;;19.40;99.90;;;;;;4840072;29;20411;-66
2022/07/22 11:37:02;;;;;;;1.00;0.80;;;19.40;99.90;;;;;;4842074;29;20098;-66
2022/07/22 11:39:29;;;;;;;1.73;1.00;;;19.50;99.90;;;;;;4842633;29;20089;-66
2022/07/22 11:41:57;;;;;;;2.92;1.00;;;19.50;99.90;;;;;;4841308;29;20125;-66
2022/07/22 11:44:26;;;;;;;1.90;0.90;;;19.50;99.90;;;;;;4842256;29;20072;-66
2022/07/22 11:46:52;;;;;;;2.63;1.00;;;19.50;99.90;;;;;;4838293;29;20065;-66
2022/07/22 11:49:20;;;;;;;3.63;1.35;;;19.40;99.90;;;;;;4842367;29;20168;-65
2022/07/22 11:51:46;;;;;;;1.67;0.90;;;19.30;99.90;;;;;;4841732;29;20451;-66
2022/07/22 11:54:12;;;;;;;2.92;0.82;;;19.20;99.90;;;;;;4842095;29;20057;-65
2022/07/22 11:56:38;;;;;;;2.78;1.17;;;19.20;99.90;;;;;;4840875;29;20061;-66
2022/07/22 11:59:06;;;;;;;3.65;1.02;;;19.20;99.90;;;;;;4842030;29;20571;-69
2022/07/22 12:01:34;;;;;;;3.35;1.20;;;19.30;99.90;;;;;;4841325;29;20046;-66
2022/07/22 12:04:08;;;;;;;3.45;1.00;;;19.40;99.90;;;;;;4836276;29;20081;-66
2022/07/22 12:06:38;;;;;;;3.72;0.95;;;19.40;99.90;;;;;;4841758;29;20057;-67
2022/07/22 12:09:21;;;;;;;4.57;0.90;;;19.50;99.90;;;;;;4842170;29;20140;-66
2022/07/22 12:11:49;;;;;;;1.85;0.85;;;19.60;99.90;;;;;;4840993;29;20058;-66
2022/07/22 12:14:17;;;;;;;2.13;0.90;;;19.50;99.90;;;;;;4837941;29;20061;-67
2022/07/22 12:16:57;;;;;;;3.45;1.05;;;19.50;99.90;;;;;;4835515;29;20504;-66
2022/07/22 12:19:24;;;;;;;1.98;1.00;;;19.60;99.90;;;;;;4838626;29;20057;-65
2022/07/22 12:21:51;;;;;;;3.47;1.10;;;19.50;99.90;;;;;;4840889;29;20054;-67
2022/07/22 12:24:45;;;;;;;4.32;1.20;;;19.50;99.90;;;;;;4843675;29;20101;-66
2022/07/22 12:27:16;;;;;;;2.08;1.05;;;19.70;99.90;;;;;;4844654;29;20411;-66
2022/07/22 12:29:45;;;;;;;1.60;1.00;;;19.50;99.90;;;;;;4838197;29;20069;-66
2022/07/22 12:32:21;;;;;;;2.17;0.98;;;19.60;99.90;;;;;;4843579;29;20172;-66
2022/07/22 12:34:54;;;;;;;2.15;1.05;;;19.80;99.90;;;;;;4845716;29;20427;-66
2022/07/22 12:37:22;;;;;;;4.20;1.05;;;19.90;99.90;;;;;;4844684;29;20061;-66
2022/07/22 12:40:08;;;;;;;2.35;1.00;;;19.90;99.90;;;;;;4845379;29;20062;-67
2022/07/22 12:42:36;;;;;;;3.25;1.10;;;20.10;99.90;;;;;;4843674;29;20100;-66
2022/07/22 12:45:06;;;;;;;2.38;1.02;;;20.00;99.90;;;;;;4845267;29;20058;-67
2022/07/22 12:47:44;;;;;;;1.92;1.05;;;20.20;99.90;;;;;;4844408;29;20065;-66